Details From SPCL - CAP FAP DAVID ABENZUR RENGIFO INTL
To SBPV - Governador Jorge Teixeira De Oliveira
Flight Number -
Tags decoded
Created
Modified
Stats Distance 645 nm / 1,195 km
Max Altitude 0 ft / 0 m
Waypoints 4
Social Downloads 1
Likes 0
Share VATSIM

Download

Looking for another format? Having issues loading an existing format? Contact us
Advertisement - Login to hide

Notes

Requested: SPCL SIGOB UM527 TEMOR UW10 AERON W10 RCO UW10 BOGUR SBPV Unmatched points: SIGOB UM527 TEMOR UW10 W10 RCO UW10

Route

SPCL AERON BOGUR SBPV

ID Type Via Altitude (ft/m) Position (lat/lon) Dist (leg/tot) Name
O SPCL APT - 0 / 0 -8.37794 / -74.57430 - / 0 nm CAP FAP DAVID ABENZUR RENGIFO INTL
AERON FIX - 0 / 0 -9.57800 / -68.53933 365 / 365 nm
BOGUR FIX - 0 / 0 -8.74863 / -64.02092 272 / 637 nm
O SBPV APT - 0 / 0 -8.70929 / -63.90228 7 / 645 nm Governador Jorge Teixeira De Oliveira

Altitude Profile

Advertisement - Login to hide

Weather


0- 5 10 15 20 25 30 35+ Temperature / °C

Clouds and Precipitation
Forecast for 2018-10-17 06:00 UTC. Updated 3 hours ago

Ground ~20,000 ft ~40,000 ft Winds

SPCL

Details ICAO SPCL (PCL)
Name CAP FAP DAVID ABENZUR RENGIFO INTL
Region Peru
Timezone America/Lima (UTC-5.0)
Stats Elevation 513 ft / 156 m (AMSL)
Location -8.377940° -74.574300°
Runways 1
Magnetic Variation 4.840° W

METAR

SPCL 170700Z VRB02KT 9999 SCT015 26/24 Q1008 RMK PP000

Decode

TAF

TAF SPCL 170500Z 1706/1806 00000KT 9999 SCT020 TX30/1719Z TN24/1711Z BECMG 1713/1715 02007KT BKN020 TEMPO 1720/1723 10012KT 4000 SHRA BKN012 FEW020TCU BKN100 BECMG 1800/1802 00000KT FEW015

Decode

Departure Runways

ID Width Length Bearing (true/mag) Surface Threshold Overrun Markings Lighting
02 148 ft / 45 m 9,234 ft / 2,814 m 19.91° / 24.75° ASPHALT 0 ft / 0 m 0 ft / 0 m APP EDGE THRESHOLD SALS
20 148 ft / 45 m 9,234 ft / 2,814 m 199.91° / 204.75° ASPHALT 0 ft / 0 m 0 ft / 0 m APP EDGE THRESHOLD

SBPV

Details ICAO SBPV (PVH)
Name Governador Jorge Teixeira De Oliveira
Region Brazil
Timezone America/Porto_Velho (UTC-4.0)
Stats Elevation 290 ft / 88 m (AMSL)
Location -8.709290° -63.902300°
Runways 1
Magnetic Variation 13.029° W

METAR

SBPV 170700Z 00000KT CAVOK 25/24 Q1006

Decode

TAF

Not found

Destination Runways

ID Width Length Bearing (true/mag) Surface Threshold Overrun Markings Lighting
01 148 ft / 45 m 7,919 ft / 2,414 m 356.64° / 9.67° ASPHALT 0 ft / 0 m 200 ft / 61 m APP EDGE THRESHOLD
19 148 ft / 45 m 7,919 ft / 2,414 m 176.64° / 189.67° ASPHALT 0 ft / 0 m 200 ft / 61 m PREC-APP EDGE THRESHOLD

Approach Navaids

Runway Type Ident Frequency Range Bearing (true/mag) Slope Elevation
19 LOC-ILS IPV 109.30 MHz 18 nm / 33 km 179.71° / 192.73 ° - 290 ft / 88 m (AMSL)
19 GS IPV 109.30 MHz 10 nm / 19 km 177.28° / 190.31 ° 3.00° 290 ft / 88 m (AMSL)

Popular Alternatives